createdAt,value
2022-10-24T00:02:53.001Z,98466.31
2022-10-24T00:07:58.706Z,98468.53
2022-10-24T00:13:03.395Z,98452.28
2022-10-24T00:18:10.792Z,98463.19
2022-10-24T00:23:15.728Z,98468.72
2022-10-24T00:28:20.543Z,98471.19
2022-10-24T00:33:28.599Z,98484.06
2022-10-24T00:38:33.402Z,98488.66
2022-10-24T00:43:38.161Z,98485.19
2022-10-24T00:48:49.694Z,98478.56
2022-10-24T00:59:04.879Z,98480.94
2022-10-24T01:04:13.980Z,98472.25
2022-10-24T01:09:33.994Z,98490.56
2022-10-24T01:14:48.341Z,98483.06
2022-10-24T01:20:26.147Z,98474.88
2022-10-24T01:25:43.746Z,98455.53
2022-10-24T01:30:55.469Z,98460.53
2022-10-24T01:36:08.897Z,98473.09
2022-10-24T01:41:16.726Z,98474.34
2022-10-24T01:46:28.845Z,98471.78
2022-10-24T01:51:36.459Z,98452.84
2022-10-24T01:56:41.471Z,98455.81
2022-10-24T02:01:48.959Z,98452.97
2022-10-24T02:06:55.020Z,98444.84
2022-10-24T02:12:01.876Z,98448.94
2022-10-24T02:17:09.550Z,98444.06
2022-10-24T02:22:22.089Z,98445.72
2022-10-24T02:27:31.971Z,98436.41
2022-10-24T02:32:42.825Z,98429.63
2022-10-24T02:37:52.887Z,98419.72
2022-10-24T02:43:01.175Z,98403.38
2022-10-24T02:48:11.483Z,98402.41
2022-10-24T02:53:17.868Z,98407.41
2022-10-24T02:58:22.657Z,98403.78
2022-10-24T03:03:30.034Z,98397.66
2022-10-24T03:08:34.823Z,98400.31
2022-10-24T03:13:39.857Z,98402.22
2022-10-24T03:18:47.265Z,98409.28
2022-10-24T03:23:52.497Z,98422.13
2022-10-24T03:28:57.253Z,98424.81
2022-10-24T03:34:04.647Z,98424.41
2022-10-24T03:39:09.872Z,98410.47
2022-10-24T03:44:14.820Z,98422.50
2022-10-24T03:49:22.261Z,98419.31
2022-10-24T03:54:27.338Z,98423.41
2022-10-24T03:59:32.678Z,98437.38
2022-10-24T04:04:40.119Z,98438.19
2022-10-24T04:09:45.152Z,98432.56
2022-10-24T04:14:49.832Z,98447.16
2022-10-24T04:19:57.666Z,98445.63
2022-10-24T04:25:02.613Z,98444.66
2022-10-24T04:30:10.668Z,98442.41
2022-10-24T04:35:21.490Z,98451.97
2022-10-24T04:40:26.546Z,98459.31
2022-10-24T04:45:31.449Z,98460.09
2022-10-24T04:50:39.468Z,98451.75
2022-10-24T04:55:44.407Z,98445.69
2022-10-24T05:00:50.331Z,98455.47
2022-10-24T05:06:00.284Z,98452.34
2022-10-24T05:11:05.315Z,98447.66
2022-10-24T05:16:10.242Z,98450.19
2022-10-24T05:21:17.715Z,98448.47
2022-10-24T05:26:22.935Z,98453.81
2022-10-24T05:31:27.906Z,98463.41
2022-10-24T05:36:35.567Z,98459.34
2022-10-24T05:41:44.685Z,98449.16
2022-10-24T05:46:52.677Z,98455.13
2022-10-24T05:52:00.047Z,98450.56
2022-10-24T05:57:05.005Z,98460.88
2022-10-24T06:02:10.420Z,98456.47
2022-10-24T06:07:17.931Z,98459.91
2022-10-24T06:12:24.802Z,98469.91
2022-10-24T06:17:29.825Z,98462.69
2022-10-24T06:22:37.560Z,98464.63
2022-10-24T06:27:42.953Z,98483.16
2022-10-24T06:32:48.017Z,98466.69
2022-10-24T06:37:55.742Z,98474.97
2022-10-24T06:43:00.923Z,98475.41
2022-10-24T06:48:06.131Z,98465.91
2022-10-24T06:53:16.074Z,98479.69
2022-10-24T06:58:22.974Z,98484.19
2022-10-24T07:03:27.769Z,98489.41
2022-10-24T07:08:35.686Z,98497.03
2022-10-24T07:13:40.918Z,98496.44
2022-10-24T07:18:46.883Z,98493.56
2022-10-24T07:23:54.687Z,98507.34
2022-10-24T07:29:03.445Z,98495.84
2022-10-24T07:34:10.912Z,98499.00
2022-10-24T07:39:18.526Z,98476.75
2022-10-24T07:44:25.715Z,98481.59
2022-10-24T07:49:32.923Z,98491.56
2022-10-24T07:54:41.307Z,98498.63
2022-10-24T07:59:46.151Z,98493.25
2022-10-24T08:04:50.972Z,98484.97
2022-10-24T08:09:59.121Z,98476.31
2022-10-24T08:15:03.825Z,98477.09
2022-10-24T08:20:11.057Z,98474.13
2022-10-24T08:25:18.708Z,98480.75
2022-10-24T08:30:24.696Z,98472.41
2022-10-24T08:35:29.510Z,98485.94
2022-10-24T08:40:36.969Z,98475.19
2022-10-24T08:45:52.705Z,98480.91
2022-10-24T08:51:05.506Z,98487.75
2022-10-24T08:56:15.145Z,98477.59
2022-10-24T09:01:30.218Z,98470.94
2022-10-24T09:06:36.194Z,98476.84
2022-10-24T09:11:49.924Z,98476.13
2022-10-24T09:16:59.292Z,98470.25
2022-10-24T09:22:05.290Z,98466.09
2022-10-24T09:27:17.643Z,98463.47
2022-10-24T09:32:26.886Z,98461.59
2022-10-24T09:37:37.713Z,98476.84
2022-10-24T09:42:57.258Z,98470.94
2022-10-24T09:48:06.047Z,98469.41
2022-10-24T09:53:25.476Z,98455.41
2022-10-24T09:58:35.774Z,98455.50
2022-10-24T10:03:41.001Z,98457.59
2022-10-24T10:08:53.390Z,98464.16
2022-10-24T10:14:20.428Z,98453.00
2022-10-24T10:19:25.769Z,98446.00
2022-10-24T10:24:40.742Z,98447.19
2022-10-24T10:29:48.254Z,98443.09
2022-10-24T10:35:00.591Z,98444.31
2022-10-24T10:40:19.213Z,98441.69
2022-10-24T10:45:37.779Z,98427.25
2022-10-24T10:50:48.288Z,98428.81
2022-10-24T10:56:04.962Z,98433.91
2022-10-24T11:01:23.042Z,98440.84
2022-10-24T11:06:44.336Z,98428.94
2022-10-24T11:11:54.840Z,98422.06
2022-10-24T11:17:11.086Z,98414.44
2022-10-24T11:22:23.033Z,98407.09
2022-10-24T11:27:34.335Z,98406.00
2022-10-24T11:32:47.769Z,98414.09
2022-10-24T11:38:06.852Z,98400.63
2022-10-24T11:43:21.979Z,98415.53
2022-10-24T11:48:37.267Z,98409.63
2022-10-24T11:53:57.451Z,98402.06
2022-10-24T11:59:04.601Z,98405.34
2022-10-24T12:04:47.859Z,98407.16
2022-10-24T12:10:14.110Z,98405.63
2022-10-24T12:15:40.501Z,98396.41
2022-10-24T12:20:54.027Z,98379.13
2022-10-24T12:26:07.462Z,98388.38
2022-10-24T12:31:25.323Z,98423.53
2022-10-24T12:37:01.458Z,98426.00
2022-10-24T12:42:17.452Z,98426.22
2022-10-24T12:47:43.823Z,98435.66
2022-10-24T12:53:07.284Z,98412.00
2022-10-24T12:58:27.545Z,98412.13
2022-10-24T13:03:56.180Z,98390.97
2022-10-24T13:09:16.366Z,98389.31
2022-10-24T13:14:58.549Z,98389.94
2022-10-24T13:20:20.565Z,98374.78
2022-10-24T13:25:34.078Z,98375.94
2022-10-24T13:30:39.940Z,98385.72
2022-10-24T13:35:47.759Z,98381.31
2022-10-24T13:40:53.338Z,98384.72
2022-10-24T13:46:12.752Z,98392.53
2022-10-24T13:51:28.507Z,98399.03
2022-10-24T13:56:38.974Z,98408.69
2022-10-24T14:01:45.160Z,98426.09
2022-10-24T14:06:52.608Z,98431.50
2022-10-24T14:11:59.502Z,98433.75
2022-10-24T14:17:23.292Z,98426.75
2022-10-24T14:22:40.011Z,98413.28
2022-10-24T14:27:45.266Z,98425.09
2022-10-24T14:32:50.837Z,98443.22
2022-10-24T14:38:00.930Z,98433.56
2022-10-24T14:43:06.982Z,98440.03
2022-10-24T14:48:24.425Z,98431.59
2022-10-24T14:53:32.364Z,98429.91
2022-10-24T14:58:39.443Z,98430.81
2022-10-24T15:03:58.417Z,98441.38
2022-10-24T15:09:08.765Z,98444.63
2022-10-24T15:14:36.235Z,98459.50
2022-10-24T15:19:56.282Z,98462.38
2022-10-24T15:25:05.362Z,98478.38
2022-10-24T15:30:16.039Z,98476.19
2022-10-24T15:35:23.533Z,98469.63
2022-10-24T15:40:33.771Z,98473.97
2022-10-24T15:45:38.499Z,98474.84
2022-10-24T15:50:48.014Z,98474.34
2022-10-24T15:55:55.399Z,98484.72
2022-10-24T16:01:02.499Z,98473.91
2022-10-24T16:06:07.766Z,98485.75
2022-10-24T16:11:15.271Z,98477.69
2022-10-24T16:16:20.044Z,98484.38
2022-10-24T16:21:25.136Z,98479.84
2022-10-24T16:26:32.614Z,98487.91
2022-10-24T16:31:37.423Z,98484.28
2022-10-24T16:36:43.161Z,98485.50
2022-10-24T16:41:50.541Z,98482.81
2022-10-24T16:46:55.754Z,98473.09
2022-10-24T16:52:00.716Z,98477.59
2022-10-24T16:57:08.142Z,98492.31
2022-10-24T17:02:14.772Z,98488.03
2022-10-24T17:07:19.825Z,98486.59
2022-10-24T17:12:27.626Z,98478.81
2022-10-24T17:17:33.792Z,98479.94
2022-10-24T17:22:40.372Z,98483.22
2022-10-24T17:27:48.583Z,98489.25
2022-10-24T17:32:53.901Z,98482.22
2022-10-24T17:38:17.934Z,98492.53
2022-10-24T17:43:27.378Z,98480.13
2022-10-24T17:48:32.522Z,98494.09
2022-10-24T17:53:37.286Z,98494.41
2022-10-24T17:58:44.685Z,98491.66
2022-10-24T18:03:49.501Z,98487.78
2022-10-24T18:08:55.885Z,98484.44
2022-10-24T18:14:03.454Z,98495.22
2022-10-24T18:19:08.828Z,98495.22
2022-10-24T18:24:13.644Z,98496.56
2022-10-24T18:29:21.177Z,98507.63
2022-10-24T18:34:26.005Z,98503.50
2022-10-24T18:39:31.356Z,98501.03
2022-10-24T18:44:39.988Z,98497.03
2022-10-24T18:49:47.029Z,98505.75
2022-10-24T18:55:04.064Z,98517.59
2022-10-24T19:00:21.439Z,98531.00
2022-10-24T19:05:42.159Z,98518.13
2022-10-24T19:10:48.792Z,98517.44
2022-10-24T19:16:00.307Z,98516.78
2022-10-24T19:21:06.580Z,98511.41
2022-10-24T19:26:16.370Z,98518.78
2022-10-24T19:31:26.688Z,98505.72
2022-10-24T19:36:34.468Z,98512.66
2022-10-24T19:41:39.495Z,98515.56
2022-10-24T19:46:46.992Z,98512.19
2022-10-24T19:51:54.657Z,98522.91
2022-10-24T19:56:59.409Z,98524.69
2022-10-24T20:02:10.011Z,98523.81
2022-10-24T20:07:17.514Z,98527.06
2022-10-24T20:12:23.656Z,98530.06
2022-10-24T20:17:31.054Z,98526.16
2022-10-24T20:22:35.843Z,98531.28
2022-10-24T20:27:41.229Z,98527.84
2022-10-24T20:32:48.565Z,98530.38
2022-10-24T20:37:53.495Z,98539.41
2022-10-24T20:42:58.468Z,98529.47
2022-10-24T20:48:06.252Z,98536.53
2022-10-24T20:53:11.107Z,98538.72
2022-10-24T20:58:16.253Z,98538.03
2022-10-24T21:03:24.680Z,98540.94
2022-10-24T21:08:29.722Z,98542.41
2022-10-24T21:13:34.798Z,98542.88
2022-10-24T21:18:42.419Z,98540.94
2022-10-24T21:23:48.052Z,98534.94
2022-10-24T21:28:59.545Z,98533.50
2022-10-24T21:34:23.848Z,98537.28
2022-10-24T21:39:29.018Z,98544.41
2022-10-24T21:44:33.927Z,98550.56
2022-10-24T21:49:41.348Z,98550.31
2022-10-24T21:54:46.169Z,98546.28
2022-10-24T21:59:51.257Z,98545.50
2022-10-24T22:04:58.672Z,98549.19
2022-10-24T22:10:04.965Z,98559.00
2022-10-24T22:15:10.829Z,98554.72
2022-10-24T22:20:18.324Z,98555.06
2022-10-24T22:25:23.168Z,98559.75
2022-10-24T22:30:27.966Z,98564.34
2022-10-24T22:35:39.259Z,98566.47
2022-10-24T22:40:46.338Z,98560.97
2022-10-24T22:46:00.428Z,98574.06
2022-10-24T22:51:08.327Z,98582.84
2022-10-24T22:56:19.886Z,98574.06
2022-10-24T23:01:34.049Z,98566.88
2022-10-24T23:06:47.301Z,98579.34
2022-10-24T23:11:52.571Z,98580.59
2022-10-24T23:17:01.608Z,98587.50
2022-10-24T23:22:18.163Z,98587.72
2022-10-24T23:27:34.503Z,98596.22
2022-10-24T23:32:41.732Z,98607.47
2022-10-24T23:37:51.654Z,98616.94
2022-10-24T23:43:00.704Z,98612.38
2022-10-24T23:48:21.398Z,98608.34
2022-10-24T23:53:39.821Z,98601.38
2022-10-24T23:58:44.976Z,98605.34
